createdAt,value
2022-11-24T00:01:08.919Z,98247.30
2022-11-24T00:03:41.236Z,98247.45
2022-11-24T00:06:15.025Z,98245.54
2022-11-24T00:08:47.919Z,98244.50
2022-11-24T00:11:21.405Z,98245.55
2022-11-24T00:13:53.841Z,98241.71
2022-11-24T00:16:28.444Z,98245.54
2022-11-24T00:19:02.342Z,98242.82
2022-11-24T00:21:34.580Z,98243.54
2022-11-24T00:24:06.847Z,98243.39
2022-11-24T00:26:39.181Z,98240.15
2022-11-24T00:29:12.494Z,98246.84
2022-11-24T00:31:44.752Z,98248.84
2022-11-24T00:34:17.145Z,98252.89
2022-11-24T00:36:49.135Z,98252.09
2022-11-24T00:39:21.504Z,98253.21
2022-11-24T00:41:53.393Z,98255.77
2022-11-24T00:44:25.333Z,98259.09
2022-11-24T00:46:57.316Z,98255.83
2022-11-24T00:49:29.334Z,98252.06
2022-11-24T00:52:01.237Z,98250.55
2022-11-24T00:54:33.275Z,98249.55
2022-11-24T00:57:05.444Z,98246.79
2022-11-24T00:59:37.417Z,98244.54
2022-11-24T01:02:09.392Z,98245.05
2022-11-24T01:04:41.418Z,98240.48
2022-11-24T01:07:13.437Z,98234.89
2022-11-24T01:09:45.952Z,98236.77
2022-11-24T01:12:17.833Z,98238.98
2022-11-24T01:14:49.697Z,98241.52
2022-11-24T01:17:21.801Z,98242.91
2022-11-24T01:19:53.700Z,98244.67
2022-11-24T01:22:27.608Z,98244.88
2022-11-24T01:24:59.570Z,98248.02
2022-11-24T01:27:31.785Z,98251.84
2022-11-24T01:30:03.816Z,98253.02
2022-11-24T01:32:36.494Z,98253.28
2022-11-24T01:35:09.954Z,98257.37
2022-11-24T01:37:41.807Z,98256.13
2022-11-24T01:40:15.002Z,98253.69
2022-11-24T01:42:50.863Z,98253.52
2022-11-24T01:45:45.987Z,98251.63
2022-11-24T01:48:27.454Z,98254.05
2022-11-24T01:51:08.568Z,98254.21
2022-11-24T01:53:43.374Z,98258.02
2022-11-24T01:56:16.237Z,98257.38
2022-11-24T01:58:50.205Z,98254.70
2022-11-24T02:01:22.359Z,98259.25
2022-11-24T02:03:54.896Z,98259.63
2022-11-24T02:06:30.419Z,98267.42
2022-11-24T02:09:05.595Z,98270.02
2022-11-24T02:11:40.152Z,98276.55
2022-11-24T02:14:14.964Z,98273.91
2022-11-24T02:16:49.989Z,98279.16
2022-11-24T02:19:33.845Z,98282.49
2022-11-24T02:22:10.202Z,98282.75
2022-11-24T02:24:48.493Z,98283.97
2022-11-24T02:27:21.434Z,98284.52
2022-11-24T02:29:53.474Z,98285.65
2022-11-24T02:32:26.075Z,98281.10
2022-11-24T02:35:04.969Z,98283.58
2022-11-24T02:37:36.877Z,98281.90
2022-11-24T02:40:11.655Z,98282.55
2022-11-24T02:42:47.675Z,98280.66
2022-11-24T02:45:19.692Z,98279.41
2022-11-24T02:47:51.575Z,98284.41
2022-11-24T02:50:23.416Z,98287.05
2022-11-24T02:52:55.342Z,98284.55
2022-11-24T02:55:27.273Z,98289.30
2022-11-24T02:57:59.707Z,98289.21
2022-11-24T03:00:31.643Z,98287.23
2022-11-24T03:03:03.560Z,98286.58
2022-11-24T03:05:35.444Z,98289.81
2022-11-24T03:08:07.752Z,98288.33
2022-11-24T03:10:39.842Z,98287.40
2022-11-24T03:13:12.323Z,98290.23
2022-11-24T03:15:44.433Z,98292.75
2022-11-24T03:18:16.435Z,98295.29
2022-11-24T03:20:48.425Z,98297.31
2022-11-24T03:23:20.308Z,98298.74
2022-11-24T03:25:52.282Z,98298.44
2022-11-24T03:28:24.189Z,98295.53
2022-11-24T03:30:56.127Z,98302.34
2022-11-24T03:33:28.009Z,98298.94
2022-11-24T03:35:59.883Z,98303.91
2022-11-24T03:38:32.228Z,98301.08
2022-11-24T03:41:04.126Z,98305.85
2022-11-24T03:43:40.439Z,98305.77
2022-11-24T03:46:15.467Z,98310.04
2022-11-24T03:48:47.416Z,98305.19
2022-11-24T03:51:19.254Z,98304.15
2022-11-24T03:53:51.110Z,98307.12
2022-11-24T03:56:22.930Z,98306.98
2022-11-24T03:58:54.762Z,98308.80
2022-11-24T04:01:26.685Z,98313.17
2022-11-24T04:03:58.805Z,98308.04
2022-11-24T04:06:30.709Z,98307.63
2022-11-24T04:09:04.001Z,98308.54
2022-11-24T04:11:53.461Z,98311.95
2022-11-24T04:14:25.393Z,98314.34
2022-11-24T04:16:57.358Z,98318.64
2022-11-24T04:19:29.195Z,98325.72
2022-11-24T04:22:01.057Z,98324.54
2022-11-24T04:24:33.170Z,98326.61
2022-11-24T04:27:05.518Z,98331.46
2022-11-24T04:29:37.448Z,98328.00
2022-11-24T04:32:09.883Z,98332.67
2022-11-24T04:34:42.048Z,98335.85
2022-11-24T04:37:14.043Z,98336.23
2022-11-24T04:39:46.537Z,98342.28
2022-11-24T04:42:18.563Z,98342.21
2022-11-24T04:44:50.987Z,98346.48
2022-11-24T04:47:25.223Z,98346.80
2022-11-24T04:49:57.808Z,98349.19
2022-11-24T04:52:31.136Z,98347.48
2022-11-24T04:55:03.962Z,98348.20
2022-11-24T04:57:35.987Z,98351.44
2022-11-24T05:00:11.724Z,98348.13
2022-11-24T05:02:43.735Z,98349.52
2022-11-24T05:05:15.886Z,98349.20
2022-11-24T05:07:48.032Z,98355.41
2022-11-24T05:10:38.739Z,98356.50
2022-11-24T05:13:13.574Z,98359.89
2022-11-24T05:15:45.510Z,98361.17
2022-11-24T05:18:18.138Z,98361.33
2022-11-24T05:20:50.224Z,98363.52
2022-11-24T05:23:22.209Z,98366.72
2022-11-24T05:25:55.247Z,98368.20
2022-11-24T05:28:27.303Z,98370.89
2022-11-24T05:31:02.968Z,98372.91
2022-11-24T05:33:35.181Z,98376.99
2022-11-24T05:36:08.837Z,98379.33
2022-11-24T05:38:40.788Z,98376.89
2022-11-24T05:41:12.638Z,98378.09
2022-11-24T05:43:44.801Z,98377.64
2022-11-24T05:46:16.814Z,98380.48
2022-11-24T05:48:48.773Z,98382.59
2022-11-24T05:51:20.743Z,98387.83
2022-11-24T05:53:52.591Z,98392.10
2022-11-24T05:56:25.267Z,98395.39
2022-11-24T05:58:57.405Z,98396.08
2022-11-24T06:01:29.369Z,98397.33
2022-11-24T06:04:01.150Z,98398.70
2022-11-24T06:06:33.036Z,98405.42
2022-11-24T06:09:04.981Z,98406.18
2022-11-24T06:11:37.064Z,98404.55
2022-11-24T06:14:11.380Z,98403.98
2022-11-24T06:16:43.835Z,98403.61
2022-11-24T06:19:16.063Z,98406.84
2022-11-24T06:21:48.126Z,98403.59
2022-11-24T06:24:20.159Z,98408.54
2022-11-24T06:26:52.261Z,98404.39
2022-11-24T06:29:24.121Z,98407.21
2022-11-24T06:31:55.904Z,98410.96
2022-11-24T06:34:27.768Z,98417.23
2022-11-24T06:36:59.830Z,98411.92
2022-11-24T06:39:31.945Z,98412.30
2022-11-24T06:42:04.694Z,98417.84
2022-11-24T06:44:37.023Z,98422.79
2022-11-24T06:47:09.124Z,98426.81
2022-11-24T06:49:41.007Z,98429.23
2022-11-24T06:52:13.018Z,98433.73
2022-11-24T06:54:44.781Z,98436.77
2022-11-24T06:57:16.665Z,98444.69
2022-11-24T06:59:48.730Z,98443.99
2022-11-24T07:02:22.999Z,98450.39
2022-11-24T07:04:54.892Z,98452.79
2022-11-24T07:07:26.873Z,98456.29
2022-11-24T07:09:58.725Z,98451.20
2022-11-24T07:12:34.537Z,98446.92
2022-11-24T07:15:07.676Z,98445.20
2022-11-24T07:17:40.408Z,98445.50
2022-11-24T07:20:13.268Z,98445.56
2022-11-24T07:22:45.101Z,98453.25
2022-11-24T07:25:17.489Z,98454.45
2022-11-24T07:27:50.357Z,98457.48
2022-11-24T07:30:22.563Z,98462.09
2022-11-24T07:32:59.502Z,98463.30
2022-11-24T07:35:31.987Z,98467.23
2022-11-24T07:38:03.908Z,98471.42
2022-11-24T07:40:36.353Z,98474.03
2022-11-24T07:43:08.260Z,98477.23
2022-11-24T07:45:40.562Z,98478.09
2022-11-24T07:48:12.368Z,98476.82
2022-11-24T07:50:44.306Z,98475.06
2022-11-24T07:53:16.764Z,98477.86
2022-11-24T07:55:55.946Z,98480.41
2022-11-24T07:58:32.394Z,98484.09
2022-11-24T08:01:12.282Z,98483.89
2022-11-24T08:03:44.856Z,98484.36
2022-11-24T08:06:27.340Z,98488.56
2022-11-24T08:09:02.742Z,98491.79
2022-11-24T08:11:34.899Z,98492.30
2022-11-24T08:14:07.334Z,98495.02
2022-11-24T08:16:39.966Z,98493.23
2022-11-24T08:19:12.402Z,98493.84
2022-11-24T08:21:44.145Z,98494.60
2022-11-24T08:24:17.052Z,98497.78
2022-11-24T08:26:49.651Z,98500.52
2022-11-24T08:29:21.824Z,98504.91
2022-11-24T08:31:54.004Z,98505.85
2022-11-24T08:34:28.212Z,98505.95
2022-11-24T08:37:00.145Z,98509.25
2022-11-24T08:39:32.501Z,98511.06
2022-11-24T08:42:04.750Z,98511.59
2022-11-24T08:44:37.209Z,98512.44
2022-11-24T08:47:09.380Z,98516.13
2022-11-24T08:49:42.019Z,98518.79
2022-11-24T08:52:13.807Z,98518.34
2022-11-24T08:54:46.928Z,98518.10
2022-11-24T08:57:21.939Z,98514.48
2022-11-24T08:59:53.992Z,98518.58
2022-11-24T09:02:25.927Z,98516.98
2022-11-24T09:04:57.910Z,98515.83
2022-11-24T09:07:30.049Z,98518.23
2022-11-24T09:10:02.021Z,98521.33
2022-11-24T09:12:33.930Z,98521.22
2022-11-24T09:15:06.128Z,98524.91
2022-11-24T09:17:38.026Z,98524.91
2022-11-24T09:20:11.056Z,98523.11
2022-11-24T09:22:43.278Z,98525.00
2022-11-24T09:25:15.096Z,98525.89
2022-11-24T09:27:46.848Z,98527.70
2022-11-24T09:30:19.074Z,98530.02
2022-11-24T09:32:50.931Z,98531.30
2022-11-24T09:35:22.925Z,98531.14
2022-11-24T09:37:54.748Z,98529.54
2022-11-24T09:40:26.848Z,98529.98
2022-11-24T09:43:04.498Z,98530.64
2022-11-24T09:46:05.482Z,98530.77
2022-11-24T09:48:40.667Z,98535.48
2022-11-24T09:51:15.910Z,98535.14
2022-11-24T09:53:52.552Z,98535.64
2022-11-24T09:56:26.061Z,98537.59
2022-11-24T09:59:03.833Z,98542.11
2022-11-24T10:01:38.206Z,98545.95
2022-11-24T10:04:17.629Z,98550.35
2022-11-24T10:06:59.349Z,98552.44
2022-11-24T10:09:51.217Z,98553.85
2022-11-24T10:12:35.649Z,98548.20
2022-11-24T10:15:28.189Z,98549.11
2022-11-24T10:18:16.730Z,98548.95
2022-11-24T10:20:57.733Z,98547.64
2022-11-24T10:23:51.554Z,98543.54
2022-11-24T10:26:35.102Z,98546.31
2022-11-24T10:29:21.231Z,98546.88
2022-11-24T10:31:56.597Z,98544.77
2022-11-24T10:34:35.608Z,98544.02
2022-11-24T10:37:15.674Z,98542.63
2022-11-24T10:40:00.219Z,98547.77
2022-11-24T10:42:36.832Z,98550.93
2022-11-24T10:45:15.118Z,98553.79
2022-11-24T10:47:46.325Z,98554.30
2022-11-24T10:50:24.394Z,98552.58
2022-11-24T10:53:04.390Z,98549.27
2022-11-24T10:56:06.984Z,98555.27
2022-11-24T10:58:40.104Z,98553.13
2022-11-24T11:01:29.857Z,98558.21
2022-11-24T11:04:02.651Z,98557.36
2022-11-24T11:06:36.447Z,98558.73
2022-11-24T11:09:21.174Z,98551.73
2022-11-24T11:11:56.922Z,98556.66
2022-11-24T11:14:35.770Z,98558.96
2022-11-24T11:17:33.822Z,98558.65
2022-11-24T11:20:06.362Z,98556.39
2022-11-24T11:22:40.040Z,98556.73
2022-11-24T11:25:23.099Z,98557.98
2022-11-24T11:28:19.095Z,98559.92
2022-11-24T11:31:19.779Z,98566.26
2022-11-24T11:34:06.229Z,98569.27
2022-11-24T11:36:46.164Z,98565.91
2022-11-24T11:39:33.266Z,98566.07
2022-11-24T11:42:45.185Z,98566.55
2022-11-24T11:45:16.396Z,98566.64
2022-11-24T11:47:52.872Z,98566.98
2022-11-24T11:50:31.501Z,98569.26
2022-11-24T11:53:16.428Z,98559.99
2022-11-24T11:55:58.714Z,98559.70
2022-11-24T11:59:03.149Z,98558.17
2022-11-24T12:01:55.028Z,98558.91
2022-11-24T12:04:46.767Z,98560.14
2022-11-24T12:07:43.463Z,98557.37
2022-11-24T12:10:25.659Z,98559.64
2022-11-24T12:13:23.183Z,98554.40
2022-11-24T12:15:58.584Z,98555.90
2022-11-24T12:18:57.156Z,98556.67
2022-11-24T12:21:35.513Z,98556.81
2022-11-24T12:24:19.016Z,98558.89
2022-11-24T12:26:54.392Z,98560.64
2022-11-24T12:29:46.200Z,98557.17
2022-11-24T12:32:33.281Z,98556.56
2022-11-24T12:35:16.598Z,98557.26
2022-11-24T12:38:01.822Z,98554.47
2022-11-24T12:40:47.182Z,98558.38
2022-11-24T12:43:28.071Z,98557.66
2022-11-24T12:46:05.578Z,98560.59
2022-11-24T12:48:49.409Z,98562.05
2022-11-24T12:51:26.978Z,98560.61
2022-11-24T12:54:02.816Z,98561.59
2022-11-24T12:56:42.623Z,98556.00
2022-11-24T12:59:34.715Z,98555.26
2022-11-24T13:02:21.418Z,98557.22
2022-11-24T13:05:02.379Z,98558.46
2022-11-24T13:07:45.662Z,98563.65
2022-11-24T13:10:55.283Z,98564.15
2022-11-24T13:13:50.160Z,98565.30
2022-11-24T13:16:48.696Z,98564.91
2022-11-24T13:19:20.724Z,98566.06
2022-11-24T13:22:14.839Z,98563.36
2022-11-24T13:24:47.243Z,98566.54
2022-11-24T13:27:43.984Z,98568.92
2022-11-24T13:30:49.614Z,98569.28
2022-11-24T13:33:38.816Z,98566.70
2022-11-24T13:36:34.131Z,98571.45
2022-11-24T13:39:19.496Z,98573.38
2022-11-24T13:42:41.476Z,98574.77
2022-11-24T13:45:03.305Z,98573.70
2022-11-24T13:47:41.115Z,98577.63
2022-11-24T13:50:26.301Z,98579.52
2022-11-24T13:53:09.504Z,98582.77
2022-11-24T13:55:42.930Z,98585.42
2022-11-24T13:58:35.553Z,98588.45
2022-11-24T14:01:14.863Z,98587.50
2022-11-24T14:07:07.929Z,98597.36
2022-11-24T14:09:44.603Z,98598.81
2022-11-24T14:12:20.420Z,98603.85
2022-11-24T14:14:55.744Z,98602.48
2022-11-24T14:17:29.027Z,98603.09
2022-11-24T14:20:01.108Z,98604.42
2022-11-24T14:22:40.342Z,98607.23
2022-11-24T14:25:32.104Z,98608.67
2022-11-24T14:28:04.067Z,98609.04
2022-11-24T14:30:35.933Z,98613.54
2022-11-24T14:33:13.820Z,98609.33
2022-11-24T14:35:48.505Z,98607.74
2022-11-24T14:38:20.433Z,98616.56
2022-11-24T14:40:54.150Z,98614.64
2022-11-24T14:43:29.871Z,98616.36
2022-11-24T14:46:04.587Z,98616.28
2022-11-24T14:48:39.812Z,98617.55
2022-11-24T14:51:20.910Z,98618.91
2022-11-24T14:53:56.481Z,98624.48
2022-11-24T14:56:30.110Z,98628.65
2022-11-24T14:59:02.176Z,98632.27
2022-11-24T15:01:36.299Z,98635.00
2022-11-24T15:04:38.818Z,98635.09
2022-11-24T15:07:20.011Z,98645.08
2022-11-24T15:09:54.185Z,98646.60
2022-11-24T15:12:30.789Z,98649.05
2022-11-24T15:15:05.255Z,98651.84
2022-11-24T15:17:37.218Z,98653.84
2022-11-24T15:20:18.107Z,98657.09
2022-11-24T15:22:52.454Z,98663.39
2022-11-24T15:25:33.782Z,98670.20
2022-11-24T15:28:05.663Z,98672.95
2022-11-24T15:30:38.221Z,98675.55
2022-11-24T15:33:16.750Z,98678.36
2022-11-24T15:35:48.835Z,98679.45
2022-11-24T15:38:20.756Z,98683.86
2022-11-24T15:40:55.045Z,98689.38
2022-11-24T15:43:32.598Z,98694.73
2022-11-24T15:46:05.755Z,98698.39
2022-11-24T15:48:37.923Z,98693.73
2022-11-24T15:51:15.857Z,98699.58
2022-11-24T15:53:51.170Z,98702.42
2022-11-24T15:56:27.359Z,98705.86
2022-11-24T15:58:59.786Z,98707.35
2022-11-24T16:01:33.964Z,98704.84
2022-11-24T16:04:06.230Z,98708.66
2022-11-24T16:06:38.190Z,98713.97
2022-11-24T16:09:16.083Z,98716.60
2022-11-24T16:11:48.387Z,98719.23
2022-11-24T16:14:20.258Z,98721.52
2022-11-24T16:16:52.431Z,98716.20
2022-11-24T16:19:24.423Z,98716.23
2022-11-24T16:21:56.332Z,98718.79
2022-11-24T16:24:28.160Z,98723.23
2022-11-24T16:26:59.984Z,98728.18
2022-11-24T16:29:36.893Z,98727.52
2022-11-24T16:32:08.793Z,98733.77
2022-11-24T16:34:40.619Z,98733.48
2022-11-24T16:37:12.898Z,98735.55
2022-11-24T16:39:50.010Z,98739.09
2022-11-24T16:42:22.280Z,98736.42
2022-11-24T16:44:54.382Z,98738.58
2022-11-24T16:47:26.311Z,98743.04
2022-11-24T16:49:58.137Z,98743.67
2022-11-24T16:52:30.145Z,98746.81
2022-11-24T16:55:02.647Z,98746.89
2022-11-24T16:57:35.371Z,98749.23
2022-11-24T17:00:09.876Z,98750.08
2022-11-24T17:02:41.994Z,98753.20
2022-11-24T17:05:14.127Z,98759.25
2022-11-24T17:07:46.050Z,98762.88
2022-11-24T17:10:18.940Z,98765.42
2022-11-24T17:12:50.820Z,98767.42
2022-11-24T17:15:32.955Z,98768.66
2022-11-24T17:18:24.185Z,98776.71
2022-11-24T17:21:03.175Z,98778.59
2022-11-24T17:23:38.153Z,98778.80
2022-11-24T17:26:11.793Z,98782.75
2022-11-24T17:28:44.262Z,98784.45
2022-11-24T17:31:21.308Z,98784.36
2022-11-24T17:33:54.482Z,98784.43
2022-11-24T17:36:26.812Z,98789.66
2022-11-24T17:39:01.502Z,98790.59
2022-11-24T17:41:34.681Z,98787.50
2022-11-24T17:44:08.653Z,98789.91
2022-11-24T17:46:40.863Z,98791.05
2022-11-24T17:49:13.324Z,98798.40
2022-11-24T17:51:46.416Z,98799.67
2022-11-24T17:57:12.198Z,98809.80
2022-11-24T17:59:44.024Z,98810.70
2022-11-24T18:02:16.206Z,98813.42
2022-11-24T18:04:48.823Z,98812.53
2022-11-24T18:07:20.737Z,98814.95
2022-11-24T18:09:52.579Z,98821.51
2022-11-24T18:12:24.397Z,98822.12
2022-11-24T18:14:56.314Z,98825.14
2022-11-24T18:17:29.171Z,98832.08
2022-11-24T18:20:01.233Z,98833.98
2022-11-24T18:22:57.773Z,98839.10
2022-11-24T18:25:25.161Z,98840.86
2022-11-24T18:27:57.359Z,98837.48
2022-11-24T18:30:29.334Z,98840.29
2022-11-24T18:33:02.146Z,98842.36
2022-11-24T18:35:34.066Z,98839.98
2022-11-24T18:38:05.943Z,98841.41
2022-11-24T18:40:41.514Z,98842.15
2022-11-24T18:43:13.637Z,98844.83
2022-11-24T18:45:46.625Z,98845.71
2022-11-24T18:48:18.532Z,98853.69
2022-11-24T18:50:53.664Z,98855.02
2022-11-24T18:53:26.840Z,98857.17
2022-11-24T18:56:00.832Z,98855.41
2022-11-24T18:58:34.129Z,98855.20
2022-11-24T19:01:10.896Z,98859.77
2022-11-24T19:03:48.695Z,98865.31
2022-11-24T19:06:24.170Z,98872.61
2022-11-24T19:08:56.969Z,98874.77
2022-11-24T19:11:32.432Z,98876.46
2022-11-24T19:14:05.550Z,98882.15
2022-11-24T19:16:38.310Z,98883.16
2022-11-24T19:19:11.759Z,98884.28
2022-11-24T19:21:43.725Z,98887.98
2022-11-24T19:24:15.582Z,98897.13
2022-11-24T19:26:47.696Z,98896.73
2022-11-24T19:29:19.673Z,98899.84
2022-11-24T19:31:51.577Z,98897.60
2022-11-24T19:34:23.575Z,98896.63
2022-11-24T19:36:55.387Z,98901.66
2022-11-24T19:39:27.493Z,98902.46
2022-11-24T19:42:00.040Z,98905.27
2022-11-24T19:44:31.954Z,98910.13
2022-11-24T19:47:03.775Z,98914.58
2022-11-24T19:49:35.637Z,98912.55
2022-11-24T19:52:07.626Z,98918.36
2022-11-24T19:54:39.423Z,98917.48
2022-11-24T19:57:11.354Z,98920.19
2022-11-24T19:59:43.447Z,98923.70
2022-11-24T20:02:15.364Z,98925.80
2022-11-24T20:04:47.247Z,98928.09
2022-11-24T20:07:20.639Z,98930.02
2022-11-24T20:09:52.599Z,98931.75
2022-11-24T20:12:24.457Z,98933.67
2022-11-24T20:14:56.711Z,98935.72
2022-11-24T20:17:30.991Z,98937.50
2022-11-24T20:20:02.991Z,98942.66
2022-11-24T20:22:34.856Z,98948.40
2022-11-24T20:25:08.128Z,98953.89
2022-11-24T20:27:39.920Z,98957.54
2022-11-24T20:30:13.877Z,98961.27
2022-11-24T20:32:45.817Z,98966.83
2022-11-24T20:35:18.516Z,98972.23
2022-11-24T20:37:50.504Z,98972.47
2022-11-24T20:40:22.354Z,98972.67
2022-11-24T20:42:54.172Z,98973.79
2022-11-24T20:45:27.576Z,98978.39
2022-11-24T20:47:59.605Z,98979.23
2022-11-24T20:50:31.381Z,98979.87
2022-11-24T20:53:03.258Z,98983.99
2022-11-24T20:55:35.051Z,98986.74
2022-11-24T20:58:07.516Z,98988.36
2022-11-24T21:00:39.466Z,98989.41
2022-11-24T21:03:11.279Z,98992.73
2022-11-24T21:05:43.169Z,98997.00
2022-11-24T21:08:15.036Z,98994.89
2022-11-24T21:10:56.304Z,99001.89
2022-11-24T21:13:28.793Z,99002.08
2022-11-24T21:16:00.773Z,99011.75
2022-11-24T21:18:34.803Z,99013.16
2022-11-24T21:21:07.049Z,99012.99
2022-11-24T21:23:39.218Z,99017.99
2022-11-24T21:26:16.645Z,99018.38
2022-11-24T21:28:49.995Z,99021.44
2022-11-24T21:31:23.061Z,99025.42
2022-11-24T21:33:56.121Z,99027.63
2022-11-24T21:36:28.376Z,99029.67
2022-11-24T21:39:01.815Z,99029.18
2022-11-24T21:41:34.992Z,99036.32
2022-11-24T21:44:07.352Z,99036.25
2022-11-24T21:46:44.997Z,99038.70
2022-11-24T21:49:19.842Z,99042.39
2022-11-24T21:51:55.461Z,99043.23
2022-11-24T21:54:27.807Z,99045.11
2022-11-24T21:56:59.620Z,99043.63
2022-11-24T21:59:31.895Z,99048.08
2022-11-24T22:02:05.846Z,99046.38
2022-11-24T22:04:40.626Z,99049.27
2022-11-24T22:07:12.469Z,99051.22
2022-11-24T22:09:46.388Z,99052.45
2022-11-24T22:12:18.665Z,99057.33
2022-11-24T22:14:50.466Z,99055.94
2022-11-24T22:17:22.598Z,99060.78
2022-11-24T22:19:54.350Z,99059.05
2022-11-24T22:22:26.116Z,99058.19
2022-11-24T22:24:58.252Z,99056.42
2022-11-24T22:27:30.012Z,99060.46
2022-11-24T22:30:02.697Z,99063.69
2022-11-24T22:32:34.547Z,99064.85
2022-11-24T22:35:07.792Z,99067.53
2022-11-24T22:37:40.147Z,99071.73
2022-11-24T22:40:13.764Z,99072.70
2022-11-24T22:42:45.748Z,99071.27
2022-11-24T22:45:17.774Z,99073.71
2022-11-24T22:47:49.707Z,99078.23
2022-11-24T22:50:21.621Z,99077.85
2022-11-24T22:52:53.923Z,99082.59
2022-11-24T22:55:25.682Z,99084.95
2022-11-24T22:57:57.685Z,99084.89
2022-11-24T23:00:29.426Z,99084.00
2022-11-24T23:03:01.246Z,99091.65
2022-11-24T23:05:35.102Z,99094.87
2022-11-24T23:08:07.399Z,99096.88
2022-11-24T23:10:39.869Z,99101.55
2022-11-24T23:13:11.683Z,99103.61
2022-11-24T23:15:43.464Z,99105.58
2022-11-24T23:18:15.261Z,99104.60
2022-11-24T23:20:47.389Z,99109.54
2022-11-24T23:23:19.369Z,99108.15
2022-11-24T23:25:51.365Z,99108.36
2022-11-24T23:28:23.136Z,99112.80
2022-11-24T23:30:54.964Z,99111.35
2022-11-24T23:33:26.722Z,99118.05
2022-11-24T23:36:00.394Z,99121.35
2022-11-24T23:38:33.442Z,99116.52
2022-11-24T23:41:07.276Z,99120.69
2022-11-24T23:43:40.332Z,99121.33
2022-11-24T23:46:14.814Z,99119.08
2022-11-24T23:48:47.328Z,99121.45
2022-11-24T23:51:20.623Z,99122.91
2022-11-24T23:53:53.043Z,99126.50
2022-11-24T23:56:26.636Z,99126.70
2022-11-24T23:58:58.372Z,99128.30
